SLRY  Reyes  Airport

Reyes, Bolivia

Add Bookmark
ICAO SLRY
IATA REY
Type Airport
Status Operational
Latitude
14° 18' 15" S
-14.304400
Longitude
67° 21' 12" W
-67.353401
Local (DST -4) UTC (GMT -4)
Jul 7, 2015 09:21 Jul 7, 2015 13:21
Sunrise-Sunset Local UTC
Begin Civil Twilight 06:30 10:30
Sunrise 06:53 10:53
Sunset 06:15 22:15
End Civil Twilight 06:38 22:38
VFR
VFR
MVFR
MVFR
IFR
IFR
LIFR
LIFR
Unknown
Unavailable

Current Weather

METAR Observed MVFR
SLRY 071300Z 00000KT 5000 VCSH BKN010 OVC070 21/20 Q1014 Tue, Jul 7, 2015 @ 13:00 UTC
(21 Minutes ago)
Marginal Visual Flight Rules
Wind Visibility Clouds Conditions
Calm 5,005 m
  • Broken at 1,000 ft AGL
  • Overcast at 7,000 ft AGL
  • Nearby Showers
Temperatures Readings Precipitation
Current Temp
21°C
70°F
Dewpoint
20°C
68°F
Humidity 94%
Altimeter 29.94" Hg
Sea Level Pressure 1,014 mb
Field Elevation
280 m
919 ft
None Recorded

Additional weather within a 92.6km radius of SLRY

Map ICAO Location
SLRQ 20.7km SW (229°)
VFR
VFR
MVFR
MVFR
IFR
IFR
LIFR
LIFR
Unknown
Unavailable
-
-

CheckWX.com is intended as a tool to help pilots better visualize weather data. It is not intended as a substitute for an official weather briefing obtained from a Flight Service Station. CheckWX.com does not meet the FAA requirements for an official pre-flight weather briefing. Therefore, it's important that pilots still call and obtain an official FSS pre-flight weather briefing.

© 2007-2015 CheckWX.com
13:21:28 UTC